Home > Products > Valid Products > TAF

000
FTUS43 KLBF 262300
TAFLBF
TAF
KLBF 262320Z 2700/2724 35004KT P6SM BKN110
     FM270500 14005KT P6SM BKN040 OVC100
     FM271100 15007KT P6SM BKN100=



000
FTUS43 KLBF 262300
TAFVTN
TAF
KVTN 262320Z 2700/2724 VRB04KT P6SM BKN120
     FM270300 11006KT P6SM SCT015 BKN030
     FM270900 14008KT P6SM OVC010
     FM271900 18012KT P6SM SCT015 BKN250=



000
FTUS43 KLBF 261700
TAFVTN
TAF
KVTN 261720Z 2618/2718 36011G17KT P6SM BKN013 OVC025
     FM262200 34009KT P6SM SCT030 BKN150
     FM270300 11006KT P6SM SCT015 BKN030
     FM270900 14008KT P6SM OVC010=



000
FTUS43 KLBF 261700
TAFLBF
TAF
KLBF 261720Z 2618/2718 34013G20KT P6SM BKN025 BKN050
     FM262000 33008KT P6SM BKN050 BKN120
     FM270500 14005KT P6SM BKN040 OVC100
     FM271100 15007KT P6SM BKN100=



000
FTUS43 KLBF 261500 AAA
TAFLBF
TAF AMD
KLBF 261513Z 2615/2712 33013G20KT P6SM BKN025
     FM261700 34013G20KT P6SM BKN050
     FM262000 33008KT P6SM BKN120
     FM270300 14005KT P6SM OVC040=



000
FTUS43 KLBF 261200 AAA
TAFVTN
TAF AMD
KVTN 261246Z 2613/2712 33019G25KT P6SM OVC009
     FM261500 33013G19KT P6SM OVC015
     FM261700 33011G17KT P6SM SCT025 OVC150
     FM261900 34009KT P6SM SCT030 BKN150
     FM270300 11006KT P6SM BKN070=



000
FTUS43 KLBF 261100
TAFLBF
TAF
KLBF 261127Z 2612/2712 34017G25KT P6SM SCT030 BKN150
      TEMPO 2612/2615 BKN030
     FM261500 33013G20KT P6SM SCT030 BKN150
     FM262000 33008KT P6SM BKN120
     FM270300 14005KT P6SM OVC040=



000
FTUS43 KLBF 261100
TAFVTN
TAF
KVTN 261127Z 2612/2712 33022G29KT P6SM OVC015
     FM261700 33011G18KT P6SM SCT025 OVC150
     FM261900 34009KT P6SM SCT030 BKN150
     FM270300 11006KT P6SM BKN070=



000
FTUS43 KLBF 261000 AAB
TAFVTN
TAF AMD
KVTN 261050Z 2611/2706 33022G31KT P6SM OVC016
     FM261700 33014G22KT P6SM SCT025 OVC050
     FM261900 34011KT P6SM BKN050
     FM262300 VRB05KT P6SM BKN070=



000
FTUS43 KLBF 260600 AAA
TAFVTN
TAF AMD
KVTN 260627Z 2606/2706 33022G31KT P6SM SCT025 BKN060
     FM261700 33014G22KT P6SM SCT025
     FM261900 34011KT P6SM BKN150
     FM262300 VRB05KT P6SM BKN070=



000
FTUS43 KLBF 260600 AAA
TAFLBF
TAF AMD
KLBF 260624Z 2606/2706 32014G23KT P6SM SCT070 OVC090
     FM261300 34017G25KT P6SM SCT025 BKN150
     FM262000 35012G18KT P6SM BKN120
     FM262300 VRB05KT P6SM OVC060=



000
FTUS43 KLBF 260500
TAFVTN
TAF
KVTN 260520Z 2606/2706 30012G19KT P6SM VCSH BKN035 OVC070
     FM260700 33022G31KT P6SM OVC025
     FM261700 33014G22KT P6SM SCT025
     FM261900 34011KT P6SM BKN150
     FM262300 VRB05KT P6SM BKN070=



000
FTUS43 KLBF 260500
TAFLBF
TAF
KLBF 260520Z 2606/2706 32010G16KT P6SM SCT030 OVC120
      TEMPO 2606/2609 P6SM OVC025
     FM261300 34017G25KT P6SM SCT025 BKN150
     FM262000 35012G18KT P6SM BKN120
     FM262300 VRB05KT P6SM OVC060=



000
FTUS43 KLBF 252300
TAFVTN
TAF
KVTN 252320Z 2600/2624 30018G23KT P6SM VCSH SCT035 BKN045
      TEMPO 2600/2602 5SM -SHSN OVC025
     FM260600 33017G27KT P6SM VCSH SCT015 OVC025
     FM261200 33022G31KT P6SM OVC025
     FM261700 33014G22KT P6SM BKN035
     FM261900 33011KT P6SM BKN050=



000
FTUS43 KLBF 252300
TAFLBF
TAF
KLBF 252320Z 2600/2624 31013G20KT P6SM OVC070
     FM261300 33017G25KT P6SM BKN100
     FM262100 34013G20KT P6SM BKN120=



000
FTUS43 KLBF 252200 AAA
TAFVTN
TAF AMD
KVTN 252256Z 2523/2618 30018G23KT P6SM VCSH SCT035 BKN045
      TEMPO 2523/2602 5SM -SHSN OVC025
     FM260200 33017G27KT P6SM VCSH SCT015 OVC025
     FM260600 33022G31KT P6SM OVC025
     FM261300 33014G25KT P6SM BKN035
     FM261700 33011KT P6SM BKN050=



000
FTUS43 KLBF 251700
TAFVTN
TAF
KVTN 251737Z 2518/2618 23011KT P6SM BKN070 OVC150
     FM252100 25011KT P6SM VCSH OVC040
      TEMPO 2522/2602 5SM -SHSN OVC025
     FM260200 33017G27KT P6SM VCSH SCT015 OVC025
     FM260600 33022G31KT P6SM OVC025
     FM261300 33014G25KT P6SM BKN035
     FM261700 33011KT P6SM BKN050=



000
FTUS43 KLBF 251700
TAFLBF
TAF
KLBF 251737Z 2518/2618 23012KT P6SM SCT050 OVC100
     FM252000 26013G20KT P6SM OVC050
     FM260100 30011KT P6SM BKN100
     FM260800 31017G25KT P6SM OVC080
     FM261500 32013KT P6SM BKN100=



000
FTUS43 KLBF 251100
TAFLBF
TAF
KLBF 251129Z 2512/2612 28007KT P6SM BKN200
     FM251800 23012KT P6SM SCT070 OVC120
     FM252000 26013G20KT P6SM OVC050
     FM260100 30013G20KT P6SM SCT120 BKN200=



000
FTUS43 KLBF 251100
TAFVTN
TAF
KVTN 251129Z 2512/2612 22009KT P6SM BKN200
     FM251700 22011KT P6SM BKN070 OVC150
     FM252000 25011KT P6SM OVC060 PROB30 2521/2601 5SM -SHRASN
      OVC015
     FM260100 33017G27KT P6SM SCT015 OVC025=



000
FTUS43 KLBF 250500
TAFVTN
TAF
KVTN 250526Z 2506/2606 28006KT P6SM BKN045
     FM251700 24011KT P6SM BKN070
     FM251900 21010KT P6SM OVC060 PROB30 2521/2601 5SM -SHRASN
      OVC015
     FM260200 33017G30KT P6SM SCT015 OVC025=



000
FTUS43 KLBF 250500
TAFLBF
TAF
KLBF 250526Z 2506/2606 28007KT P6SM SCT050
     FM251800 24010KT P6SM OVC090
     FM252000 27013G20KT P6SM OVC045
     FM260100 30013G20KT P6SM SCT120=



000
FTUS43 KLBF 242300
TAFVTN
TAF
KVTN 242320Z 2500/2524 33012KT P6SM SCT050 BKN100
     FM250400 28006KT P6SM BKN040 BKN080
     FM251700 23011KT P6SM BKN070 PROB30 2521/2524 5SM -SHRA OVC030=



000
FTUS43 KLBF 242300
TAFLBF
TAF
KLBF 242320Z 2500/2524 30006KT P6SM SCT050 BKN100
     FM251800 24010KT P6SM BKN090=



000
FTUS43 KLBF 241700
TAFVTN
TAF
KVTN 241736Z 2418/2518 33016G25KT P6SM SKC
     FM250000 32007KT P6SM BKN060
     FM250400 28006KT P6SM BKN030
     FM250900 26005KT P6SM BKN180
     FM251700 23011KT P6SM BKN070=



000
FTUS43 KLBF 241700
TAFLBF
TAF
KLBF 241736Z 2418/2518 32018G26KT P6SM SKC
     FM242000 33023G35KT P6SM SCT060
     FM250000 30008KT P6SM BKN060
     FM251400 24010KT P6SM BKN090=



000
FTUS43 KLBF 241100
TAFLBF
TAF
KLBF 241121Z 2412/2512 30015G21KT P6SM SKC
     FM241900 33022G32KT P6SM SCT060
     FM250000 32010KT P6SM OVC060=



000
FTUS43 KLBF 241100
TAFVTN
TAF
KVTN 241121Z 2412/2512 32016G25KT P6SM SKC
     FM250000 32010KT P6SM BKN060=



000
FTUS43 KLBF 240500
TAFLBF
TAF
KLBF 240520Z 2406/2506 29010KT P6SM OVC080
     FM241600 31015G23KT P6SM BKN080
     FM241900 33022G32KT P6SM SCT080
     FM250000 30010KT P6SM SCT080=



000
FTUS43 KLBF 240500
TAFVTN
TAF
KVTN 240520Z 2406/2506 32020G30KT P6SM BKN045 OVC080
      TEMPO 2409/2413 P6SM OVC030
     FM241600 32015G25KT P6SM SCT035
     FM250000 29010KT P6SM SCT070=



000
FTUS43 KLBF 240300 AAC
TAFVTN
TAF AMD
KVTN 240327Z 2403/2424 32016G24KT P6SM OVC050
      TEMPO 2403/2404 3SM -SHSN OVC025
     FM240600 32015G25KT P6SM OVC020
     FM241600 32020G28KT P6SM SCT020=



000
FTUS43 KLBF 240100 AAB
TAFVTN
TAF AMD
KVTN 240108Z 2401/2424 32020G30KT P6SM BKN060
      TEMPO 2401/2403 2SM -SHSN OVC025
     FM240300 32020G30KT P6SM -SN OVC025
     FM240600 32015G25KT P6SM OVC020
     FM241600 32020G28KT P6SM SCT020=



000
FTUS43 KLBF 240000 AAA
TAFVTN
TAF AMD
KVTN 240016Z 2400/2424 32020G30KT P6SM BKN060
      TEMPO 2400/2403 P6SM -SHSN OVC060
     FM240300 32020G30KT P6SM -SN OVC025
     FM240600 32015G25KT P6SM OVC020
     FM241600 32020G28KT P6SM SCT020=



    US Dept of Commerce
    National Oceanic and Atmospheric Administration
    National Weather Service
    1325 East West Highway
    Silver Spring, MD 20910
    Page Author: NWS Internet Services Team
Disclaimer
Information Quality
Credits
Glossary
Privacy Policy
Freedom of Information Act (FOIA)
About Us
Career Opportunities